createdAt,value
2022-12-04T00:01:20.553Z,0.56
2022-12-04T00:03:48.601Z,0.51
2022-12-04T00:06:17.814Z,0.56
2022-12-04T00:08:46.292Z,0.57
2022-12-04T00:11:17.066Z,0.57
2022-12-04T00:13:45.322Z,0.56
2022-12-04T00:16:14.788Z,0.48
2022-12-04T00:18:42.780Z,0.59
2022-12-04T00:21:13.130Z,0.60
2022-12-04T00:23:41.433Z,0.56
2022-12-04T00:26:10.829Z,0.58
2022-12-04T00:28:39.928Z,0.61
2022-12-04T00:31:08.785Z,0.59
2022-12-04T00:33:36.643Z,0.48
2022-12-04T00:36:07.057Z,0.61
2022-12-04T00:38:34.808Z,0.54
2022-12-04T00:41:02.546Z,0.57
2022-12-04T00:43:31.185Z,0.60
2022-12-04T00:46:00.224Z,0.61
2022-12-04T00:48:27.968Z,0.61
2022-12-04T00:50:55.601Z,0.37
2022-12-04T00:53:23.563Z,0.51
2022-12-04T00:55:51.300Z,0.56
2022-12-04T00:58:18.954Z,0.52
2022-12-04T01:00:46.677Z,0.45
2022-12-04T01:03:15.763Z,0.58
2022-12-04T01:05:45.441Z,0.46
2022-12-04T01:08:13.950Z,0.56
2022-12-04T01:10:42.945Z,0.52
2022-12-04T01:13:10.719Z,0.51
2022-12-04T01:15:40.052Z,0.34
2022-12-04T01:18:07.804Z,0.58
2022-12-04T01:20:36.971Z,0.54
2022-12-04T01:23:04.600Z,0.49
2022-12-04T01:25:32.273Z,0.61
2022-12-04T01:27:59.904Z,0.46
2022-12-04T01:30:27.519Z,0.51
2022-12-04T01:32:55.186Z,0.64
2022-12-04T01:35:22.912Z,0.42
2022-12-04T01:37:51.871Z,0.63
2022-12-04T01:40:21.044Z,0.47
2022-12-04T01:42:48.707Z,0.55
2022-12-04T01:45:44.126Z,0.50
2022-12-04T01:48:17.355Z,0.54
2022-12-04T01:50:45.507Z,0.58
2022-12-04T01:53:15.185Z,0.65
2022-12-04T01:55:43.458Z,0.64
2022-12-04T01:58:11.335Z,0.60
2022-12-04T02:00:39.129Z,0.60
2022-12-04T02:03:06.886Z,0.57
2022-12-04T02:05:34.615Z,0.58
2022-12-04T02:08:05.444Z,0.62
2022-12-04T02:10:43.069Z,0.56
2022-12-04T02:13:15.992Z,0.66
2022-12-04T02:15:50.117Z,0.56
2022-12-04T02:18:22.750Z,0.62
2022-12-04T02:20:54.198Z,0.62
2022-12-04T02:23:33.921Z,0.54
2022-12-04T02:26:10.868Z,0.58
2022-12-04T02:28:43.564Z,0.57
2022-12-04T02:31:14.635Z,0.54
2022-12-04T02:33:45.897Z,0.52
2022-12-04T02:36:16.426Z,0.59
2022-12-04T02:38:45.773Z,0.60
2022-12-04T02:41:16.937Z,0.57
2022-12-04T02:43:47.891Z,0.61
2022-12-04T02:46:19.952Z,0.62
2022-12-04T02:48:50.711Z,0.65
2022-12-04T02:51:20.804Z,0.58
2022-12-04T02:53:51.380Z,0.51
2022-12-04T02:56:22.428Z,0.51
2022-12-04T02:58:54.455Z,0.58
2022-12-04T03:01:25.256Z,0.44
2022-12-04T03:03:56.656Z,0.45
2022-12-04T03:06:25.173Z,0.44
2022-12-04T03:08:54.772Z,0.48
2022-12-04T03:11:22.779Z,0.56
2022-12-04T03:13:54.455Z,0.52
2022-12-04T03:16:24.488Z,0.49
2022-12-04T03:18:55.257Z,0.49
2022-12-04T03:21:25.476Z,0.50
2022-12-04T03:23:56.385Z,0.47
2022-12-04T03:26:27.089Z,0.43
2022-12-04T03:28:59.851Z,0.40
2022-12-04T03:31:33.798Z,0.40
2022-12-04T03:34:02.814Z,0.36
2022-12-04T03:36:34.567Z,0.38
2022-12-04T03:39:04.800Z,0.35
2022-12-04T03:41:34.453Z,0.43
2022-12-04T03:44:07.928Z,0.34
2022-12-04T03:46:37.685Z,0.39
2022-12-04T03:49:10.491Z,0.34
2022-12-04T03:51:40.667Z,0.31
2022-12-04T03:54:11.987Z,0.44
2022-12-04T03:56:41.592Z,0.44
2022-12-04T03:59:12.539Z,0.29
2022-12-04T04:01:44.506Z,0.41
2022-12-04T04:04:15.584Z,0.50
2022-12-04T04:06:47.201Z,0.41
2022-12-04T04:09:17.361Z,0.47
2022-12-04T04:11:48.616Z,0.39
2022-12-04T04:14:37.816Z,0.46
2022-12-04T04:17:27.177Z,0.39
2022-12-04T04:20:20.424Z,0.47
2022-12-04T04:23:07.783Z,0.37
2022-12-04T04:25:37.933Z,0.27
2022-12-04T04:28:05.629Z,0.37
2022-12-04T04:30:35.841Z,0.39
2022-12-04T04:33:08.136Z,0.36
2022-12-04T04:35:44.307Z,0.39
2022-12-04T04:38:17.117Z,0.45
2022-12-04T04:40:50.776Z,0.39
2022-12-04T04:43:21.387Z,0.46
2022-12-04T04:45:54.986Z,0.47
2022-12-04T04:48:25.191Z,0.36
2022-12-04T04:50:53.121Z,0.36
2022-12-04T04:53:22.847Z,0.31
2022-12-04T04:55:50.959Z,0.44
2022-12-04T04:58:21.707Z,0.41
2022-12-04T05:00:58.174Z,0.43
2022-12-04T05:03:25.927Z,0.38
2022-12-04T05:05:53.618Z,0.39
2022-12-04T05:08:21.801Z,0.41
2022-12-04T05:10:49.579Z,0.39
2022-12-04T05:13:18.377Z,0.40
2022-12-04T05:15:46.250Z,0.32
2022-12-04T05:18:15.346Z,0.29
2022-12-04T05:20:41.985Z,0.39
2022-12-04T05:23:09.916Z,0.39
2022-12-04T05:25:37.490Z,0.34
2022-12-04T05:28:05.169Z,0.43
2022-12-04T05:30:32.769Z,0.35
2022-12-04T05:33:00.361Z,0.45
2022-12-04T05:35:29.417Z,0.38
2022-12-04T05:37:57.024Z,0.38
2022-12-04T05:40:24.787Z,0.36
2022-12-04T05:42:52.405Z,0.32
2022-12-04T05:45:19.944Z,0.34
2022-12-04T05:47:47.628Z,0.32
2022-12-04T05:50:15.374Z,0.30
2022-12-04T05:52:44.472Z,0.48
2022-12-04T05:55:12.093Z,0.38
2022-12-04T05:57:39.747Z,0.41
2022-12-04T06:00:08.710Z,0.31
2022-12-04T06:02:36.586Z,0.44
2022-12-04T06:05:04.627Z,0.40
2022-12-04T06:07:32.282Z,0.39
2022-12-04T06:10:01.217Z,0.46
2022-12-04T06:12:28.798Z,0.39
2022-12-04T06:14:56.616Z,0.47
2022-12-04T06:17:24.246Z,0.48
2022-12-04T06:19:53.428Z,0.54
2022-12-04T06:22:21.281Z,0.38
2022-12-04T06:24:49.089Z,0.58
2022-12-04T06:27:33.513Z,0.55
2022-12-04T06:30:01.167Z,0.53
2022-12-04T06:32:28.813Z,0.47
2022-12-04T06:34:56.515Z,0.57
2022-12-04T06:37:25.792Z,0.50
2022-12-04T06:39:53.680Z,0.45
2022-12-04T06:42:22.825Z,0.59
2022-12-04T06:44:50.447Z,0.50
2022-12-04T06:47:18.344Z,0.45
2022-12-04T06:49:46.487Z,0.50
2022-12-04T06:52:14.088Z,0.51
2022-12-04T06:54:42.032Z,0.58
2022-12-04T06:57:09.814Z,0.55
2022-12-04T06:59:39.104Z,0.51
2022-12-04T07:02:06.799Z,0.46
2022-12-04T07:04:34.490Z,0.43
2022-12-04T07:07:02.247Z,0.48
2022-12-04T07:09:29.906Z,0.51
2022-12-04T07:11:57.528Z,0.45
2022-12-04T07:14:25.166Z,0.49
2022-12-04T07:16:54.189Z,0.53
2022-12-04T07:19:21.918Z,0.59
2022-12-04T07:21:49.582Z,0.53
2022-12-04T07:24:18.284Z,0.44
2022-12-04T07:26:46.357Z,0.54
2022-12-04T07:29:14.110Z,0.50
2022-12-04T07:31:41.800Z,0.64
2022-12-04T07:34:10.862Z,0.52
2022-12-04T07:36:40.086Z,0.52
2022-12-04T07:39:07.894Z,0.56
2022-12-04T07:41:36.183Z,0.46
2022-12-04T07:44:03.735Z,0.53
2022-12-04T07:46:31.560Z,0.63
2022-12-04T07:49:00.015Z,0.66
2022-12-04T07:51:30.074Z,0.52
2022-12-04T07:54:03.116Z,0.63
2022-12-04T07:56:31.847Z,0.61
2022-12-04T07:59:00.282Z,0.65
2022-12-04T08:01:28.197Z,0.66
2022-12-04T08:03:57.778Z,0.69
2022-12-04T08:06:27.298Z,0.66
2022-12-04T08:08:57.227Z,0.62
2022-12-04T08:11:26.363Z,0.67
2022-12-04T08:13:55.545Z,0.64
2022-12-04T08:16:23.442Z,0.57
2022-12-04T08:18:51.187Z,0.70
2022-12-04T08:21:21.744Z,0.59
2022-12-04T08:23:51.047Z,0.72
2022-12-04T08:26:21.723Z,0.58
2022-12-04T08:28:49.593Z,0.57
2022-12-04T08:31:19.370Z,0.59
2022-12-04T08:33:48.368Z,0.48
2022-12-04T08:36:19.147Z,0.63
2022-12-04T08:38:47.596Z,0.71
2022-12-04T08:41:17.178Z,0.72
2022-12-04T08:43:46.306Z,0.73
2022-12-04T08:46:15.645Z,0.69
2022-12-04T08:48:43.360Z,0.67
2022-12-04T08:51:15.820Z,0.67
2022-12-04T08:53:43.515Z,0.64
2022-12-04T08:56:11.594Z,0.68
2022-12-04T08:58:39.333Z,0.63
2022-12-04T09:01:09.785Z,0.70
2022-12-04T09:03:37.629Z,0.76
2022-12-04T09:06:06.518Z,0.83
2022-12-04T09:08:34.697Z,0.70
2022-12-04T09:11:06.251Z,0.72
2022-12-04T09:13:34.331Z,0.72
2022-12-04T09:16:05.014Z,0.69
2022-12-04T09:18:34.361Z,0.80
2022-12-04T09:21:03.538Z,0.78
2022-12-04T09:23:31.299Z,0.82
2022-12-04T09:25:59.008Z,0.85
2022-12-04T09:28:26.724Z,0.86
2022-12-04T09:30:58.978Z,0.74
2022-12-04T09:33:26.775Z,0.87
2022-12-04T09:35:55.860Z,0.87
2022-12-04T09:38:23.596Z,0.91
2022-12-04T09:40:53.827Z,0.87
2022-12-04T09:43:28.775Z,0.86
2022-12-04T09:46:00.179Z,0.85
2022-12-04T09:48:32.691Z,0.85
2022-12-04T09:51:02.557Z,0.95
2022-12-04T09:53:36.030Z,1.02
2022-12-04T09:56:06.068Z,1.01
2022-12-04T09:58:37.446Z,0.94
2022-12-04T10:01:06.214Z,0.84
2022-12-04T10:03:34.388Z,1.01
2022-12-04T10:06:08.216Z,1.06
2022-12-04T10:08:37.568Z,0.96
2022-12-04T10:11:12.211Z,0.90
2022-12-04T10:14:05.642Z,0.99
2022-12-04T10:16:39.510Z,1.12
2022-12-04T10:19:11.956Z,1.28
2022-12-04T10:21:50.927Z,1.08
2022-12-04T10:24:28.093Z,1.09
2022-12-04T10:26:57.559Z,1.14
2022-12-04T10:29:27.934Z,1.20
2022-12-04T10:31:57.263Z,1.10
2022-12-04T10:34:26.661Z,1.20
2022-12-04T10:36:56.648Z,1.20
2022-12-04T10:39:26.538Z,1.12
2022-12-04T10:41:58.725Z,1.22
2022-12-04T10:44:26.548Z,1.14
2022-12-04T10:46:56.711Z,1.10
2022-12-04T10:49:27.454Z,1.14
2022-12-04T10:51:56.907Z,1.14
2022-12-04T10:54:32.153Z,1.23
2022-12-04T10:57:01.352Z,1.13
2022-12-04T10:59:30.265Z,1.18
2022-12-04T11:02:06.537Z,1.24
2022-12-04T11:04:35.406Z,1.26
2022-12-04T11:07:06.844Z,1.17
2022-12-04T11:09:34.892Z,1.20
2022-12-04T11:12:08.160Z,1.27
2022-12-04T11:14:35.885Z,1.21
2022-12-04T11:17:06.177Z,1.32
2022-12-04T11:19:36.232Z,1.37
2022-12-04T11:22:13.298Z,1.43
2022-12-04T11:24:42.690Z,1.42
2022-12-04T11:27:18.291Z,1.42
2022-12-04T11:29:47.489Z,1.49
2022-12-04T11:32:21.608Z,1.45
2022-12-04T11:34:51.782Z,1.46
2022-12-04T11:37:23.236Z,1.52
2022-12-04T11:39:51.450Z,1.39
2022-12-04T11:42:23.756Z,1.42
2022-12-04T11:44:53.259Z,1.41
2022-12-04T11:47:23.384Z,1.45
2022-12-04T11:50:01.490Z,1.50
2022-12-04T11:52:39.918Z,1.20
2022-12-04T11:55:12.666Z,1.49
2022-12-04T11:57:44.707Z,1.54
2022-12-04T12:00:15.231Z,1.54
2022-12-04T12:02:54.621Z,1.71
2022-12-04T12:05:41.643Z,1.60
2022-12-04T12:08:15.315Z,1.54
2022-12-04T12:10:48.283Z,1.41
2022-12-04T12:13:22.218Z,1.51
2022-12-04T12:15:53.945Z,1.57
2022-12-04T12:18:35.875Z,1.59
2022-12-04T12:21:07.520Z,1.60
2022-12-04T12:23:47.390Z,1.59
2022-12-04T12:26:16.825Z,1.51
2022-12-04T12:29:08.827Z,1.59
2022-12-04T12:31:52.841Z,1.64
2022-12-04T12:34:26.107Z,1.65
2022-12-04T12:37:00.548Z,1.56
2022-12-04T12:39:36.008Z,1.60
2022-12-04T12:42:03.591Z,1.72
2022-12-04T12:44:36.315Z,1.52
2022-12-04T12:47:08.963Z,1.51
2022-12-04T12:49:42.439Z,1.58
2022-12-04T12:52:17.173Z,1.55
2022-12-04T12:54:49.431Z,1.55
2022-12-04T12:57:19.947Z,1.50
2022-12-04T12:59:50.686Z,1.65
2022-12-04T13:02:29.172Z,1.64
2022-12-04T13:04:59.121Z,1.48
2022-12-04T13:07:30.996Z,1.53
2022-12-04T13:10:03.725Z,1.57
2022-12-04T13:12:38.902Z,1.49
2022-12-04T13:15:07.256Z,1.51
2022-12-04T13:17:37.234Z,1.50
2022-12-04T13:20:10.408Z,1.52
2022-12-04T13:22:44.355Z,1.51
2022-12-04T13:25:20.482Z,1.48
2022-12-04T13:27:58.664Z,1.50
2022-12-04T13:30:31.579Z,1.57
2022-12-04T13:33:29.146Z,1.63
2022-12-04T13:36:13.838Z,1.62
2022-12-04T13:38:56.483Z,1.55
2022-12-04T13:41:28.550Z,1.51
2022-12-04T13:43:57.531Z,1.55
2022-12-04T13:46:30.214Z,1.59
2022-12-04T13:49:09.244Z,1.55
2022-12-04T13:51:38.961Z,1.56
2022-12-04T13:54:25.511Z,1.59
2022-12-04T13:56:56.817Z,1.49
2022-12-04T13:59:35.475Z,1.50
2022-12-04T14:02:08.233Z,1.59
2022-12-04T14:04:41.673Z,1.53
2022-12-04T14:07:24.048Z,1.58
2022-12-04T14:09:53.515Z,1.56
2022-12-04T14:12:28.185Z,1.64
2022-12-04T14:14:58.111Z,1.55
2022-12-04T14:17:27.838Z,1.54
2022-12-04T14:20:00.757Z,1.58
2022-12-04T14:22:41.530Z,1.55
2022-12-04T14:25:23.893Z,1.60
2022-12-04T14:27:54.287Z,1.59
2022-12-04T14:30:25.322Z,1.66
2022-12-04T14:32:55.515Z,1.72
2022-12-04T14:35:25.033Z,1.82
2022-12-04T14:37:57.061Z,1.69
2022-12-04T14:40:27.864Z,1.68
2022-12-04T14:42:57.130Z,1.68
2022-12-04T14:45:33.424Z,1.67
2022-12-04T14:48:19.616Z,1.79
2022-12-04T14:50:52.952Z,1.67
2022-12-04T14:53:29.848Z,1.64
2022-12-04T14:56:07.129Z,1.66
2022-12-04T14:58:39.014Z,1.65
2022-12-04T15:01:08.571Z,1.66
2022-12-04T15:03:38.165Z,1.70
2022-12-04T15:06:07.674Z,1.66
2022-12-04T15:08:36.274Z,1.74
2022-12-04T15:11:24.758Z,1.75
2022-12-04T15:13:53.840Z,1.59
2022-12-04T15:16:23.313Z,1.73
2022-12-04T15:18:55.110Z,1.64
2022-12-04T15:21:23.060Z,1.52
2022-12-04T15:23:50.947Z,1.67
2022-12-04T15:26:20.879Z,1.61
2022-12-04T15:28:53.206Z,1.65
2022-12-04T15:31:23.605Z,1.64
2022-12-04T15:33:53.393Z,1.64
2022-12-04T15:36:37.667Z,1.63
2022-12-04T15:39:05.962Z,1.69
2022-12-04T15:41:35.205Z,1.67
2022-12-04T15:44:04.744Z,1.65
2022-12-04T15:46:34.406Z,1.66
2022-12-04T15:49:14.370Z,1.63
2022-12-04T15:51:42.177Z,1.72
2022-12-04T15:54:15.105Z,1.68
2022-12-04T15:56:42.959Z,1.65
2022-12-04T15:59:18.166Z,1.69
2022-12-04T16:01:46.044Z,1.79
2022-12-04T16:04:22.307Z,1.61
2022-12-04T16:06:53.591Z,1.68
2022-12-04T16:09:23.519Z,1.66
2022-12-04T16:11:59.450Z,1.58
2022-12-04T16:14:28.567Z,1.66
2022-12-04T16:17:05.527Z,1.57
2022-12-04T16:19:35.834Z,1.57
2022-12-04T16:22:06.408Z,1.53
2022-12-04T16:24:34.023Z,1.55
2022-12-04T16:27:02.162Z,1.66
2022-12-04T16:29:31.497Z,1.60
2022-12-04T16:32:03.016Z,1.68
2022-12-04T16:34:31.328Z,1.72
2022-12-04T16:36:59.845Z,1.50
2022-12-04T16:39:27.480Z,1.48
2022-12-04T16:41:55.118Z,1.54
2022-12-04T16:44:22.914Z,1.49
2022-12-04T16:46:52.204Z,1.57
2022-12-04T16:49:19.928Z,1.55
2022-12-04T16:51:50.488Z,1.51
2022-12-04T16:54:20.360Z,1.63
2022-12-04T16:56:48.092Z,1.65
2022-12-04T16:59:15.675Z,1.68
2022-12-04T17:01:45.367Z,1.60
2022-12-04T17:04:15.939Z,1.59
2022-12-04T17:06:43.888Z,1.64
2022-12-04T17:09:11.623Z,1.79
2022-12-04T17:11:39.673Z,1.64
2022-12-04T17:14:08.076Z,1.40
2022-12-04T17:16:36.093Z,1.68
2022-12-04T17:19:04.112Z,1.65
2022-12-04T17:21:34.236Z,1.78
2022-12-04T17:24:02.174Z,1.77
2022-12-04T17:26:29.969Z,1.60
2022-12-04T17:28:57.526Z,1.66
2022-12-04T17:31:26.469Z,1.74
2022-12-04T17:33:54.232Z,1.71
2022-12-04T17:36:25.183Z,1.69
2022-12-04T17:38:55.659Z,1.58
2022-12-04T17:41:23.515Z,1.68
2022-12-04T17:43:51.557Z,1.69
2022-12-04T17:46:21.803Z,1.73
2022-12-04T17:48:49.836Z,1.50
2022-12-04T17:51:19.422Z,1.66
2022-12-04T17:53:47.114Z,1.70
2022-12-04T17:56:18.262Z,1.69
2022-12-04T17:58:46.640Z,1.70
2022-12-04T18:01:16.132Z,1.67
2022-12-04T18:03:44.478Z,1.78
2022-12-04T18:06:13.374Z,1.77
2022-12-04T18:08:44.066Z,1.56
2022-12-04T18:11:17.520Z,1.72
2022-12-04T18:13:45.344Z,1.80
2022-12-04T18:16:13.176Z,1.86
2022-12-04T18:18:41.037Z,1.76
2022-12-04T18:21:10.375Z,1.79
2022-12-04T18:23:40.197Z,1.72
2022-12-04T18:26:08.568Z,1.75
2022-12-04T18:28:38.146Z,1.76
2022-12-04T18:31:07.575Z,1.82
2022-12-04T18:33:37.324Z,1.77
2022-12-04T18:36:05.688Z,1.76
2022-12-04T18:38:33.951Z,1.68
2022-12-04T18:41:03.391Z,1.68
2022-12-04T18:43:34.690Z,1.79
2022-12-04T18:46:08.246Z,1.87
2022-12-04T18:48:36.947Z,1.70
2022-12-04T18:51:17.232Z,1.75
2022-12-04T18:53:48.140Z,1.73
2022-12-04T18:56:16.313Z,1.67
2022-12-04T18:58:45.386Z,1.76
2022-12-04T19:01:17.311Z,1.71
2022-12-04T19:03:45.678Z,1.59
2022-12-04T19:06:13.763Z,1.76
2022-12-04T19:08:43.462Z,1.72
2022-12-04T19:11:13.674Z,1.69
2022-12-04T19:13:41.558Z,1.65
2022-12-04T19:16:12.282Z,1.69
2022-12-04T19:18:42.125Z,1.73
2022-12-04T19:21:10.007Z,1.76
2022-12-04T19:23:37.850Z,1.73
2022-12-04T19:26:05.742Z,1.78
2022-12-04T19:28:33.555Z,1.82
2022-12-04T19:31:01.470Z,1.75
2022-12-04T19:33:29.485Z,1.74
2022-12-04T19:35:59.579Z,1.82
2022-12-04T19:38:29.108Z,1.80
2022-12-04T19:41:04.815Z,1.71
2022-12-04T19:43:33.002Z,1.83
2022-12-04T19:46:00.709Z,1.77
2022-12-04T19:48:28.686Z,1.83
2022-12-04T19:50:56.567Z,1.68
2022-12-04T19:53:25.540Z,1.80
2022-12-04T19:55:53.256Z,1.71
2022-12-04T19:58:21.041Z,1.73
2022-12-04T20:00:49.777Z,1.76
2022-12-04T20:03:19.232Z,1.79
2022-12-04T20:05:47.637Z,1.73
2022-12-04T20:08:15.373Z,1.77
2022-12-04T20:10:44.558Z,1.67
2022-12-04T20:13:13.238Z,1.72
2022-12-04T20:15:41.260Z,1.66
2022-12-04T20:18:08.915Z,1.72
2022-12-04T20:20:37.154Z,1.82
2022-12-04T20:23:04.905Z,1.84
2022-12-04T20:25:32.685Z,1.90
2022-12-04T20:28:01.891Z,1.83
2022-12-04T20:30:30.321Z,1.92
2022-12-04T20:32:58.522Z,1.93
2022-12-04T20:35:26.260Z,1.90
2022-12-04T20:37:53.990Z,1.82
2022-12-04T20:40:21.729Z,1.85
2022-12-04T20:42:49.647Z,1.93
2022-12-04T20:45:19.005Z,1.89
2022-12-04T20:47:46.979Z,1.92
2022-12-04T20:50:14.627Z,1.98
2022-12-04T20:52:42.334Z,1.94
2022-12-04T20:55:10.963Z,1.93
2022-12-04T20:57:38.790Z,1.90
2022-12-04T21:00:07.838Z,1.85
2022-12-04T21:02:37.257Z,1.85
2022-12-04T21:05:05.523Z,1.78
2022-12-04T21:07:33.247Z,1.73
2022-12-04T21:10:01.377Z,1.77
2022-12-04T21:12:46.442Z,1.83
2022-12-04T21:15:31.901Z,1.79
2022-12-04T21:18:02.845Z,1.77
2022-12-04T21:20:30.528Z,1.78
2022-12-04T21:22:59.127Z,1.81
2022-12-04T21:25:27.808Z,1.83
2022-12-04T21:27:55.567Z,1.84
2022-12-04T21:30:23.587Z,1.78
2022-12-04T21:32:51.271Z,1.64
2022-12-04T21:35:20.999Z,1.80
2022-12-04T21:37:49.793Z,1.76
2022-12-04T21:40:17.558Z,1.85
2022-12-04T21:42:45.195Z,1.86
2022-12-04T21:45:12.882Z,1.89
2022-12-04T21:47:40.562Z,1.93
2022-12-04T21:50:09.782Z,1.80
2022-12-04T21:52:39.193Z,1.83
2022-12-04T21:55:07.333Z,1.90
2022-12-04T21:57:35.084Z,1.87
2022-12-04T22:00:04.080Z,1.91
2022-12-04T22:02:32.482Z,1.84
2022-12-04T22:05:00.221Z,1.81
2022-12-04T22:07:28.837Z,1.72
2022-12-04T22:09:58.650Z,1.68
2022-12-04T22:12:48.620Z,1.66
2022-12-04T22:15:14.779Z,1.63
2022-12-04T22:17:42.819Z,1.72
2022-12-04T22:20:11.033Z,1.57
2022-12-04T22:22:38.800Z,1.52
2022-12-04T22:25:08.527Z,1.52
2022-12-04T22:27:36.143Z,1.58
2022-12-04T22:30:04.895Z,1.58
2022-12-04T22:32:32.935Z,1.58
2022-12-04T22:35:00.580Z,1.50
2022-12-04T22:37:28.278Z,1.63
2022-12-04T22:39:56.403Z,1.60
2022-12-04T22:42:26.270Z,1.49
2022-12-04T22:44:53.967Z,1.47
2022-12-04T22:47:21.799Z,1.53
2022-12-04T22:49:49.591Z,1.46
2022-12-04T22:52:17.644Z,1.36
2022-12-04T22:54:45.205Z,1.33
2022-12-04T22:57:13.490Z,1.35
2022-12-04T22:59:42.616Z,1.38
2022-12-04T23:02:10.275Z,1.43
2022-12-04T23:04:38.025Z,1.38
2022-12-04T23:07:06.189Z,1.42
2022-12-04T23:09:34.040Z,1.40
2022-12-04T23:12:01.713Z,1.29
2022-12-04T23:14:29.928Z,1.27
2022-12-04T23:16:59.221Z,1.32
2022-12-04T23:19:27.058Z,1.28
2022-12-04T23:21:57.196Z,1.24
2022-12-04T23:24:25.434Z,1.42
2022-12-04T23:26:53.160Z,1.40
2022-12-04T23:29:51.430Z,1.39
2022-12-04T23:32:09.713Z,1.44
2022-12-04T23:34:37.418Z,1.37
2022-12-04T23:37:05.140Z,1.43
2022-12-04T23:39:32.946Z,1.38
2022-12-04T23:42:01.012Z,1.44
2022-12-04T23:44:29.048Z,1.40
2022-12-04T23:46:56.897Z,1.37
2022-12-04T23:49:26.353Z,1.38
2022-12-04T23:51:54.151Z,1.35
2022-12-04T23:54:21.849Z,1.39
2022-12-04T23:56:49.604Z,1.32
2022-12-04T23:59:17.348Z,1.37
